Time;durP1;ratioP1;P1;durP2;ratioP2;P2;SDS_P1;SDS_P2;PMS_P1;PMS_P2;Temp;Humidity;BMP_temperature;BMP_pressure;BME280_temperature;BME280_humidity;BME280_pressure;Samples;Min_cycle;Max_cycle;Signal;HPM_P1;HPM_P2
2022/12/09 00:01:56;;;;;;;18.85;10.98;;;2.60;99.90;;;;;;5067767;28;20096;-67
2022/12/09 00:04:21;;;;;;;16.13;10.88;;;2.50;99.90;;;;;;5085340;28;20071;-67
2022/12/09 00:06:47;;;;;;;17.58;11.70;;;2.50;99.90;;;;;;5068375;28;20132;-67
2022/12/09 00:09:14;;;;;;;24.52;12.80;;;2.50;99.90;;;;;;5068518;28;20066;-67
2022/12/09 00:11:40;;;;;;;17.90;11.38;;;2.60;99.90;;;;;;5053924;28;20076;-67
2022/12/09 00:14:08;;;;;;;19.83;10.90;;;2.60;99.90;;;;;;5075270;28;20417;-67
2022/12/09 00:16:33;;;;;;;20.75;11.43;;;2.50;99.90;;;;;;5085337;28;20403;-67
2022/12/09 00:18:59;;;;;;;19.13;11.63;;;2.50;99.90;;;;;;5068806;28;20040;-67
2022/12/09 00:21:33;;;;;;;15.20;10.20;;;2.50;99.90;;;;;;5067492;28;20519;-67
2022/12/09 00:24:02;;;;;;;16.10;10.25;;;2.60;99.90;;;;;;5085027;28;20033;-67
2022/12/09 00:26:28;;;;;;;16.52;10.40;;;2.60;99.90;;;;;;5050508;28;20104;-67
2022/12/09 00:28:55;;;;;;;16.92;9.93;;;2.60;99.90;;;;;;5065070;28;20103;-67
2022/12/09 00:31:29;;;;;;;17.83;11.25;;;2.60;99.90;;;;;;5047358;28;20106;-67
2022/12/09 00:33:57;;;;;;;20.08;11.35;;;2.60;99.90;;;;;;5026948;28;20119;-67
2022/12/09 00:36:23;;;;;;;20.40;11.65;;;2.60;99.90;;;;;;5063926;28;20063;-67
2022/12/09 00:38:49;;;;;;;18.52;11.50;;;2.60;99.90;;;;;;5036108;28;20041;-67
2022/12/09 00:41:16;;;;;;;20.45;12.23;;;2.50;99.90;;;;;;5043099;28;20037;-67
2022/12/09 00:43:42;;;;;;;19.23;11.18;;;2.50;99.90;;;;;;5038204;28;20045;-67
2022/12/09 00:46:08;;;;;;;19.80;11.05;;;2.50;99.90;;;;;;5050862;28;20052;-67
2022/12/09 00:48:36;;;;;;;19.95;11.60;;;2.60;99.90;;;;;;5034555;28;20094;-67
2022/12/09 00:51:01;;;;;;;17.88;11.25;;;2.60;99.90;;;;;;5059727;28;20081;-67
2022/12/09 00:53:27;;;;;;;18.75;11.00;;;2.60;99.90;;;;;;5030248;28;20064;-67
2022/12/09 00:55:53;;;;;;;18.35;11.75;;;2.60;99.90;;;;;;5065961;28;20109;-67
2022/12/09 00:58:19;;;;;;;18.38;11.27;;;2.70;99.90;;;;;;5048196;28;20068;-67
2022/12/09 01:00:44;;;;;;;18.05;11.65;;;2.70;99.90;;;;;;5048140;28;20055;-67
2022/12/09 01:03:14;;;;;;;17.52;11.15;;;2.60;99.90;;;;;;5052053;28;20079;-67
2022/12/09 01:05:41;;;;;;;16.17;10.90;;;2.60;99.90;;;;;;5065770;28;20053;-67
2022/12/09 01:08:07;;;;;;;20.95;11.50;;;2.60;99.90;;;;;;5045258;28;20337;-67
2022/12/09 01:10:33;;;;;;;21.02;10.88;;;2.70;99.90;;;;;;5046616;28;20051;-67
2022/12/09 01:12:59;;;;;;;18.95;11.60;;;2.70;99.90;;;;;;5045815;28;20044;-67
2022/12/09 01:15:25;;;;;;;17.95;12.02;;;2.70;99.90;;;;;;5014314;28;20052;-67
2022/12/09 01:17:50;;;;;;;18.75;11.40;;;2.70;99.90;;;;;;5064750;28;20076;-67
2022/12/09 01:20:16;;;;;;;19.10;12.32;;;2.80;99.90;;;;;;5064145;28;20108;-67
2022/12/09 01:22:42;;;;;;;19.80;11.52;;;2.80;99.90;;;;;;5041066;28;20107;-67
2022/12/09 01:25:08;;;;;;;17.33;11.75;;;2.80;99.90;;;;;;5060901;28;20048;-67
2022/12/09 01:27:34;;;;;;;16.70;11.82;;;2.90;99.90;;;;;;5069875;28;20042;-67
2022/12/09 01:30:00;;;;;;;17.63;11.38;;;2.90;99.90;;;;;;5085215;28;20103;-67
2022/12/09 01:32:25;;;;;;;15.02;11.02;;;2.70;99.90;;;;;;5066897;28;20501;-67
2022/12/09 01:34:51;;;;;;;18.95;11.23;;;2.70;99.90;;;;;;5077737;28;20036;-67
2022/12/09 01:37:17;;;;;;;16.17;11.32;;;2.80;99.90;;;;;;5030197;28;20049;-67
2022/12/09 01:39:42;;;;;;;17.60;11.93;;;2.80;99.90;;;;;;5083607;28;20047;-67
2022/12/09 01:42:20;;;;;;;18.67;11.68;;;2.70;99.90;;;;;;5066038;28;20048;-67
2022/12/09 01:45:29;;;;;;;19.73;11.90;;;2.70;99.90;;;;;;5072183;28;20040;-67
2022/12/09 01:48:14;;;;;;;18.98;10.98;;;2.70;99.90;;;;;;5065965;28;20045;-67
2022/12/09 01:50:44;;;;;;;19.10;10.60;;;2.80;99.90;;;;;;5084997;28;20112;-67
2022/12/09 01:53:10;;;;;;;;;;;2.70;99.90;;;;;;5085304;28;20119;-67
2022/12/09 01:55:36;;;;;;;22.85;11.68;;;2.70;99.90;;;;;;5067303;28;19928;-67
2022/12/09 01:58:04;;;;;;;16.88;11.13;;;2.60;99.90;;;;;;5066745;28;20111;-67
2022/12/09 02:00:30;;;;;;;16.85;10.73;;;2.60;99.90;;;;;;5064642;28;20110;-67
2022/12/09 02:02:56;;;;;;;18.23;11.18;;;2.60;99.90;;;;;;5065930;28;20048;-67
2022/12/09 02:05:23;;;;;;;20.65;12.35;;;2.50;99.90;;;;;;5066525;28;20045;-67
2022/12/09 02:07:49;;;;;;;18.70;11.77;;;2.50;99.90;;;;;;5085011;28;20055;-67
2022/12/09 02:10:17;;;;;;;20.95;12.20;;;2.50;99.90;;;;;;5065933;28;20412;-67
2022/12/09 02:13:00;;;;;;;17.05;11.00;;;2.40;99.90;;;;;;5054653;28;20044;-67
2022/12/09 02:15:47;;;;;;;17.75;10.70;;;2.20;99.90;;;;;;5066556;28;20055;-67
2022/12/09 02:18:33;;;;;;;15.68;9.98;;;2.10;99.90;;;;;;5066473;28;20059;-67
2022/12/09 02:21:20;;;;;;;19.92;11.02;;;1.90;99.90;;;;;;5054884;28;20087;-67
2022/12/09 02:24:26;;;;;;;16.17;10.25;;;1.60;99.90;;;;;;5048767;28;20040;-67
2022/12/09 02:27:07;;;;;;;15.65;9.57;;;1.50;99.90;;;;;;5043732;28;20061;-67
2022/12/09 02:29:50;;;;;;;18.02;10.27;;;1.30;99.90;;;;;;5046903;28;20064;-67
2022/12/09 02:32:35;;;;;;;17.95;9.85;;;1.30;99.90;;;;;;5046212;28;20044;-67
2022/12/09 02:35:09;;;;;;;20.42;10.32;;;1.30;99.90;;;;;;5060916;28;20088;-67
2022/12/09 02:37:39;;;;;;;15.25;9.82;;;1.30;99.90;;;;;;5049336;28;20041;-67
2022/12/09 02:40:21;;;;;;;19.42;10.98;;;1.30;99.90;;;;;;5064997;28;20055;-67
2022/12/09 02:42:48;;;;;;;16.15;9.55;;;1.30;99.90;;;;;;5049864;28;20080;-67
2022/12/09 02:45:15;;;;;;;15.88;10.32;;;1.30;99.90;;;;;;5049271;28;20064;-67
2022/12/09 02:47:46;;;;;;;19.17;10.25;;;1.20;99.90;;;;;;5049489;28;20033;-67
2022/12/09 02:50:15;;;;;;;13.43;9.18;;;1.20;99.90;;;;;;5050275;28;20118;-67
2022/12/09 02:52:42;;;;;;;16.48;10.32;;;1.20;99.90;;;;;;5066699;28;20049;-67
2022/12/09 02:55:11;;;;;;;16.92;9.82;;;1.10;99.90;;;;;;5067179;28;20041;-67
2022/12/09 02:57:38;;;;;;;17.45;10.25;;;1.10;99.90;;;;;;5048266;28;20048;-67
2022/12/09 03:00:04;;;;;;;18.77;10.27;;;1.10;99.90;;;;;;5067246;28;20052;-67
2022/12/09 03:02:53;;;;;;;16.38;10.57;;;1.10;99.90;;;;;;5050345;28;20088;-67
2022/12/09 03:05:32;;;;;;;16.83;11.23;;;1.20;99.90;;;;;;5063253;28;20048;-67
2022/12/09 03:08:07;;;;;;;16.58;10.27;;;1.20;99.90;;;;;;5043157;28;20059;-67
2022/12/09 03:10:56;;;;;;;20.25;11.32;;;1.30;99.90;;;;;;5036642;28;20057;-67
2022/12/09 03:13:30;;;;;;;19.88;10.60;;;1.30;99.90;;;;;;5048439;28;20052;-67
2022/12/09 03:16:08;;;;;;;20.98;11.90;;;1.40;99.90;;;;;;5050002;28;20056;-67
2022/12/09 03:18:37;;;;;;;18.27;10.45;;;1.40;99.90;;;;;;5053908;28;20128;-67
2022/12/09 03:21:05;;;;;;;19.58;10.68;;;1.40;99.90;;;;;;5049954;28;20049;-67
2022/12/09 03:23:32;;;;;;;21.50;12.57;;;1.40;99.90;;;;;;5049686;28;20079;-67
2022/12/09 03:25:58;;;;;;;21.00;12.77;;;1.40;99.90;;;;;;5049602;28;20053;-67
2022/12/09 03:28:31;;;;;;;18.05;10.45;;;1.40;99.90;;;;;;5037695;28;20049;-67
2022/12/09 03:31:01;;;;;;;17.10;10.35;;;1.40;99.90;;;;;;5048303;28;20043;-67
2022/12/09 03:33:27;;;;;;;;;;;1.40;99.90;;;;;;5063793;28;20076;-67
2022/12/09 03:35:57;;;;;;;17.63;10.98;;;1.40;99.90;;;;;;5048553;28;19916;-67
2022/12/09 03:38:27;;;;;;;17.90;11.03;;;1.40;99.90;;;;;;5048400;28;20453;-67
2022/12/09 03:41:02;;;;;;;19.05;12.00;;;1.40;99.90;;;;;;5036792;28;20109;-67
2022/12/09 03:43:33;;;;;;;17.38;11.13;;;1.40;99.90;;;;;;5047648;28;20049;-67
2022/12/09 03:46:00;;;;;;;19.60;11.50;;;1.40;99.90;;;;;;5069161;28;20096;-67
2022/12/09 03:48:26;;;;;;;18.30;11.20;;;1.20;99.90;;;;;;5051697;28;20095;-67
2022/12/09 03:51:05;;;;;;;18.35;11.13;;;1.30;99.90;;;;;;5045761;28;20050;-67
2022/12/09 03:53:40;;;;;;;18.73;11.57;;;1.20;99.90;;;;;;5045064;28;20052;-67
2022/12/09 03:56:13;;;;;;;18.83;11.43;;;1.20;99.90;;;;;;5065147;28;20052;-67
2022/12/09 03:58:42;;;;;;;19.20;11.13;;;1.30;99.90;;;;;;5044615;28;20494;-67
2022/12/09 04:01:08;;;;;;;18.70;12.00;;;1.30;99.90;;;;;;5041223;28;20049;-67
2022/12/09 04:03:34;;;;;;;16.75;9.93;;;1.30;99.90;;;;;;5029298;28;20049;-67
2022/12/09 04:06:00;;;;;;;19.77;11.80;;;1.20;99.90;;;;;;5039676;28;20080;-67
2022/12/09 04:08:26;;;;;;;15.90;10.77;;;1.20;99.90;;;;;;5046013;28;20100;-67
2022/12/09 04:10:51;;;;;;;22.17;11.65;;;1.10;99.90;;;;;;5044836;28;20096;-67
2022/12/09 04:13:17;;;;;;;21.23;13.00;;;1.10;99.90;;;;;;5048181;28;20528;-67
2022/12/09 04:15:42;;;;;;;18.58;11.38;;;1.10;99.90;;;;;;5061789;28;20099;-67
2022/12/09 04:18:08;;;;;;;18.35;11.98;;;1.10;99.90;;;;;;5049103;28;20049;-67
2022/12/09 04:20:34;;;;;;;15.93;9.63;;;1.20;99.90;;;;;;5048761;28;20076;-67
2022/12/09 04:22:59;;;;;;;16.65;10.55;;;1.00;99.90;;;;;;5047852;28;20032;-67
2022/12/09 04:25:25;;;;;;;15.38;9.60;;;0.90;99.90;;;;;;5052274;28;20068;-67
2022/12/09 04:27:51;;;;;;;15.40;9.43;;;0.80;99.90;;;;;;5091629;28;20099;-67
2022/12/09 04:30:17;;;;;;;17.77;10.88;;;0.80;99.90;;;;;;5059539;28;20051;-67
2022/12/09 04:32:42;;;;;;;17.73;10.68;;;0.70;99.90;;;;;;5086219;28;20045;-67
2022/12/09 04:35:08;;;;;;;17.70;10.65;;;0.80;99.90;;;;;;5085036;28;20048;-67
2022/12/09 04:37:36;;;;;;;20.33;12.55;;;0.70;99.90;;;;;;5086056;28;20039;-67
2022/12/09 04:40:05;;;;;;;19.05;10.90;;;0.80;99.90;;;;;;5080852;28;20058;-67
2022/12/09 04:42:31;;;;;;;20.37;12.00;;;0.70;99.90;;;;;;5067703;28;20127;-67
2022/12/09 04:44:57;;;;;;;21.70;13.10;;;0.70;99.90;;;;;;5085133;28;20279;-67
2022/12/09 04:47:22;;;;;;;25.33;14.27;;;0.70;99.90;;;;;;5060892;28;20057;-67
2022/12/09 04:49:48;;;;;;;21.27;11.45;;;0.70;99.90;;;;;;5075783;28;20095;-67
2022/12/09 04:52:16;;;;;;;14.75;9.77;;;0.60;99.90;;;;;;5052800;28;20055;-67
2022/12/09 04:54:41;;;;;;;17.38;11.05;;;0.50;99.90;;;;;;5079269;28;20051;-67
2022/12/09 04:57:07;;;;;;;15.90;9.57;;;0.30;99.90;;;;;;5084926;28;20045;-67
2022/12/09 04:59:33;;;;;;;20.75;12.32;;;0.30;99.90;;;;;;5065767;28;20072;-67
2022/12/09 05:01:59;;;;;;;17.30;10.10;;;0.20;99.90;;;;;;5048990;28;20061;-67
2022/12/09 05:04:24;;;;;;;19.80;10.60;;;0.30;99.90;;;;;;5064575;28;20108;-67
2022/12/09 05:06:51;;;;;;;16.88;10.85;;;0.20;99.90;;;;;;5061500;28;20041;-67
2022/12/09 05:09:16;;;;;;;18.58;11.50;;;0.20;99.90;;;;;;5084452;28;20056;-67
2022/12/09 05:11:42;;;;;;;28.08;15.93;;;0.20;99.90;;;;;;5057627;28;20123;-67
2022/12/09 05:14:07;;;;;;;26.27;14.52;;;0.30;99.90;;;;;;5067541;28;20044;-68
2022/12/09 05:16:33;;;;;;;26.80;15.02;;;0.50;99.90;;;;;;5065759;28;20040;-67
2022/12/09 05:18:59;;;;;;;30.67;16.67;;;0.50;99.90;;;;;;5065789;28;20055;-67
2022/12/09 05:21:25;;;;;;;26.55;14.73;;;0.50;99.90;;;;;;5084274;28;20040;-67
2022/12/09 05:23:50;;;;;;;23.92;13.60;;;0.70;99.90;;;;;;5063447;28;20056;-67
2022/12/09 05:26:20;;;;;;;25.35;14.30;;;0.50;99.90;;;;;;5063569;28;20072;-68
2022/12/09 05:28:46;;;;;;;28.27;14.00;;;0.50;99.90;;;;;;5034266;28;20095;-68
2022/12/09 05:31:14;;;;;;;22.95;13.45;;;0.50;99.90;;;;;;5052221;28;20036;-67
2022/12/09 05:33:40;;;;;;;23.88;13.73;;;0.30;99.90;;;;;;5049566;28;20447;-68
2022/12/09 05:36:10;;;;;;;24.98;13.35;;;0.30;99.90;;;;;;5065667;28;20044;-68
2022/12/09 05:38:35;;;;;;;24.52;15.25;;;0.30;99.90;;;;;;5084147;28;20047;-67
2022/12/09 05:41:01;;;;;;;25.35;14.38;;;0.20;99.90;;;;;;5066755;28;20040;-68
2022/12/09 05:43:27;;;;;;;21.92;12.60;;;0.20;99.90;;;;;;5049139;28;20128;-67
2022/12/09 05:45:53;;;;;;;23.42;13.40;;;0.20;99.90;;;;;;5083321;28;20060;-67
2022/12/09 05:48:18;;;;;;;26.48;15.85;;;0.10;99.90;;;;;;5074903;28;20060;-67
2022/12/09 05:50:44;;;;;;;28.45;16.52;;;0.20;99.90;;;;;;5077617;28;20041;-71
2022/12/09 05:53:10;;;;;;;33.30;17.65;;;0.30;99.90;;;;;;5082807;28;20194;-67
2022/12/09 05:55:40;;;;;;;29.98;17.42;;;0.40;99.90;;;;;;5081358;28;20040;-67
2022/12/09 05:58:06;;;;;;;31.00;17.10;;;0.50;99.90;;;;;;5084976;28;20512;-68
2022/12/09 06:00:31;;;;;;;31.33;19.10;;;0.60;99.90;;;;;;5076479;28;20048;-68
2022/12/09 06:02:57;;;;;;;30.83;18.33;;;0.70;99.90;;;;;;5065461;28;20041;-68
2022/12/09 06:05:22;;;;;;;36.80;19.42;;;0.80;99.90;;;;;;5084692;28;20055;-68
2022/12/09 06:07:48;;;;;;;35.70;18.40;;;0.80;99.90;;;;;;5076902;28;20167;-67
2022/12/09 06:10:14;;;;;;;32.53;18.83;;;0.80;99.90;;;;;;5065975;28;20102;-68
2022/12/09 06:12:40;;;;;;;32.97;18.05;;;0.90;99.90;;;;;;5056274;28;20051;-67
2022/12/09 06:15:06;;;;;;;32.97;18.40;;;0.90;99.90;;;;;;5029020;28;20296;-67
2022/12/09 06:17:31;;;;;;;33.97;18.00;;;1.00;99.90;;;;;;5070313;28;20045;-67
2022/12/09 06:19:57;;;;;;;33.10;18.55;;;1.00;99.90;;;;;;5067687;28;20135;-68
2022/12/09 06:22:23;;;;;;;31.45;17.63;;;1.00;99.90;;;;;;5068335;28;20051;-68
2022/12/09 06:24:48;;;;;;;34.08;19.73;;;0.90;99.90;;;;;;5067642;28;20099;-67
2022/12/09 06:27:15;;;;;;;34.55;19.20;;;1.00;99.90;;;;;;5067351;28;20407;-67
2022/12/09 06:29:40;;;;;;;33.65;18.60;;;1.00;99.90;;;;;;5066010;28;20048;-67
2022/12/09 06:32:06;;;;;;;29.67;17.20;;;0.90;99.90;;;;;;5067410;28;20048;-68
2022/12/09 06:34:32;;;;;;;29.80;18.30;;;0.70;99.90;;;;;;5083302;28;20064;-67
2022/12/09 06:36:57;;;;;;;29.05;17.65;;;0.60;99.90;;;;;;5067165;28;20048;-67
2022/12/09 06:39:23;;;;;;;34.35;18.25;;;0.50;99.90;;;;;;5068526;28;20049;-67
2022/12/09 06:41:48;;;;;;;27.52;17.33;;;0.40;99.90;;;;;;5067714;28;20045;-69
2022/12/09 06:44:14;;;;;;;30.10;16.30;;;0.40;99.90;;;;;;5085352;28;20040;-69
2022/12/09 06:46:40;;;;;;;26.05;15.90;;;0.30;99.90;;;;;;5081846;28;20067;-68
2022/12/09 06:49:05;;;;;;;24.75;14.15;;;0.10;99.90;;;;;;5057145;28;20484;-69
2022/12/09 06:51:31;;;;;;;23.85;14.68;;;-0.10;99.90;;;;;;5055442;28;20052;-69
2022/12/09 06:53:57;;;;;;;24.48;14.80;;;-0.30;99.90;;;;;;5054886;28;20056;-67
2022/12/09 06:56:23;;;;;;;24.45;14.50;;;-0.40;99.90;;;;;;5073950;28;20076;-67
2022/12/09 06:58:49;;;;;;;27.73;16.95;;;-0.50;99.90;;;;;;5062628;28;20041;-67
2022/12/09 07:01:18;;;;;;;26.55;16.40;;;-0.40;99.90;;;;;;5059849;28;20048;-67
2022/12/09 07:03:47;;;;;;;21.42;12.82;;;-0.40;99.90;;;;;;5067917;28;20365;-68
2022/12/09 07:06:24;;;;;;;27.15;15.90;;;-0.30;99.90;;;;;;5060190;28;20135;-68
2022/12/09 07:08:50;;;;;;;21.42;12.43;;;-0.20;99.90;;;;;;5067602;28;20045;-66
2022/12/09 07:11:16;;;;;;;22.35;13.05;;;-0.50;99.90;;;;;;5041939;28;20147;-66
2022/12/09 07:13:41;;;;;;;24.85;13.55;;;-0.70;99.90;;;;;;5043603;28;20049;-65
2022/12/09 07:16:07;;;;;;;27.75;14.75;;;-0.80;99.90;;;;;;5021135;28;20057;-65
2022/12/09 07:18:33;;;;;;;35.30;15.73;;;-0.80;99.90;;;;;;5063333;28;20095;-65
2022/12/09 07:21:06;;;;;;;24.73;14.48;;;-0.80;99.90;;;;;;5069913;28;20067;-65
2022/12/09 07:23:31;;;;;;;28.63;13.43;;;-0.90;99.90;;;;;;5046889;28;20418;-65
2022/12/09 07:25:57;;;;;;;23.88;12.88;;;-1.20;99.90;;;;;;5051602;28;20052;-66
2022/12/09 07:28:23;;;;;;;27.27;14.85;;;-1.40;99.90;;;;;;5061640;28;20129;-65
2022/12/09 07:30:48;;;;;;;33.05;17.70;;;-1.30;99.90;;;;;;5044543;28;20048;-64
2022/12/09 07:33:14;;;;;;;30.45;17.20;;;-1.30;99.90;;;;;;5053734;28;20037;-63
2022/12/09 07:35:40;;;;;;;29.10;15.95;;;-1.30;99.90;;;;;;5078356;28;20618;-64
2022/12/09 07:38:05;;;;;;;31.92;17.83;;;-1.20;99.90;;;;;;5051849;28;20052;-64
2022/12/09 07:40:31;;;;;;;31.70;16.42;;;-1.20;99.90;;;;;;5078973;28;20052;-64
2022/12/09 07:42:57;;;;;;;28.30;16.08;;;-1.20;99.90;;;;;;5051594;28;20230;-64
2022/12/09 07:45:22;;;;;;;29.13;16.27;;;-1.10;99.90;;;;;;5076009;28;20028;-64
2022/12/09 07:47:48;;;;;;;33.28;18.60;;;-1.20;99.90;;;;;;5059390;28;20044;-64
2022/12/09 07:50:14;;;;;;;35.30;18.95;;;-1.20;99.90;;;;;;5060003;28;20079;-64
2022/12/09 07:52:39;;;;;;;36.42;20.05;;;-1.20;99.90;;;;;;5030774;28;20150;-65
2022/12/09 07:55:06;;;;;;;28.48;16.23;;;-1.00;99.90;;;;;;5054253;28;20135;-65
2022/12/09 07:57:32;;;;;;;35.78;19.52;;;-0.90;99.90;;;;;;5038646;28;20049;-65
2022/12/09 07:59:58;;;;;;;25.98;15.68;;;-1.00;99.90;;;;;;5058626;28;20051;-64
2022/12/09 08:02:24;;;;;;;33.55;17.83;;;-1.10;99.90;;;;;;5050214;28;20096;-64
2022/12/09 08:04:50;;;;;;;34.67;19.20;;;-1.10;99.90;;;;;;5060429;28;20296;-64
2022/12/09 08:07:15;;;;;;;28.00;15.85;;;-1.00;99.90;;;;;;5049197;28;20046;-63
2022/12/09 08:09:41;;;;;;;32.90;18.23;;;-0.90;99.90;;;;;;5064759;28;20040;-65
2022/12/09 08:12:06;;;;;;;33.47;18.08;;;-0.80;99.90;;;;;;5049072;28;20048;-63
2022/12/09 08:14:32;;;;;;;27.98;16.67;;;-0.80;99.90;;;;;;5060333;28;20338;-64
2022/12/09 08:16:58;;;;;;;30.05;16.15;;;-0.80;99.90;;;;;;5050347;28;20052;-64
2022/12/09 08:19:23;;;;;;;27.92;16.90;;;-0.90;99.90;;;;;;5075048;28;20063;-65
2022/12/09 08:21:49;;;;;;;29.05;16.33;;;-1.00;99.90;;;;;;5063363;28;20155;-65
2022/12/09 08:24:15;;;;;;;29.17;15.50;;;-1.10;99.90;;;;;;5058868;28;20080;-65
2022/12/09 08:26:41;;;;;;;31.40;17.10;;;-1.00;99.90;;;;;;5065904;28;20494;-65
2022/12/09 08:29:09;;;;;;;36.75;19.08;;;-1.00;99.90;;;;;;5059147;28;20141;-65
2022/12/09 08:31:35;;;;;;;33.95;17.27;;;-0.90;99.90;;;;;;5045054;28;20057;-65
2022/12/09 08:34:04;;;;;;;28.60;16.88;;;-0.80;99.90;;;;;;5047340;28;20059;-65
2022/12/09 08:36:30;;;;;;;32.83;18.05;;;-0.70;99.90;;;;;;5040670;28;20060;-65
2022/12/09 08:39:00;;;;;;;32.53;17.98;;;-0.70;99.90;;;;;;5059053;28;20055;-65
2022/12/09 08:41:34;;;;;;;37.17;19.70;;;-0.60;99.90;;;;;;5050183;28;20103;-65
2022/12/09 08:44:00;;;;;;;40.75;21.17;;;-0.50;99.90;;;;;;5056072;28;20283;-65
2022/12/09 08:46:26;;;;;;;42.15;22.45;;;-0.40;99.90;;;;;;5050933;28;20044;-65
2022/12/09 08:48:52;;;;;;;48.40;23.02;;;-0.40;99.90;;;;;;5048574;28;20155;-65
2022/12/09 08:51:17;;;;;;;45.92;23.75;;;-0.20;99.90;;;;;;5067948;28;20041;-65
2022/12/09 08:53:43;;;;;;;50.00;24.27;;;0.00;99.90;;;;;;5061434;28;20076;-65
2022/12/09 08:56:11;;;;;;;49.97;24.67;;;0.00;99.90;;;;;;5075809;28;20045;-65
2022/12/09 08:58:37;;;;;;;53.47;26.42;;;0.20;99.90;;;;;;5048502;28;20044;-65
2022/12/09 09:01:03;;;;;;;58.75;28.10;;;0.30;99.90;;;;;;5050242;28;20048;-64
2022/12/09 09:03:29;;;;;;;57.17;27.00;;;0.40;99.90;;;;;;5047697;28;20110;-63
2022/12/09 09:06:01;;;;;;;58.28;28.00;;;0.50;99.90;;;;;;5053557;28;20059;-64
2022/12/09 09:08:26;;;;;;;58.67;28.25;;;0.60;99.90;;;;;;5034944;28;20052;-64
2022/12/09 09:10:53;;;;;;;60.90;28.42;;;0.60;99.90;;;;;;5051753;28;20052;-63
2022/12/09 09:13:19;;;;;;;59.30;28.30;;;0.70;99.90;;;;;;5034887;28;20532;-63
2022/12/09 09:15:44;;;;;;;59.78;29.20;;;0.70;99.90;;;;;;5048695;28;20136;-63
2022/12/09 09:18:10;;;;;;;58.85;29.42;;;0.80;99.90;;;;;;5045593;28;20048;-63
2022/12/09 09:20:36;;;;;;;60.25;30.10;;;0.80;99.90;;;;;;5075609;28;20048;-63
2022/12/09 09:23:02;;;;;;;59.58;30.10;;;0.80;99.90;;;;;;5047828;28;20052;-63
2022/12/09 09:25:28;;;;;;;63.00;29.38;;;0.80;99.90;;;;;;5076392;28;20056;-63
2022/12/09 09:27:54;;;;;;;66.00;30.95;;;0.90;99.90;;;;;;5065563;28;20076;-63
2022/12/09 09:30:19;;;;;;;65.30;30.30;;;1.00;99.90;;;;;;5077216;28;20041;-64
2022/12/09 09:32:45;;;;;;;74.55;33.35;;;1.10;99.90;;;;;;5048993;28;20110;-65
2022/12/09 09:35:11;;;;;;;81.47;33.40;;;1.00;99.90;;;;;;5058227;28;20087;-64
2022/12/09 09:37:36;;;;;;;105.30;32.50;;;1.00;99.90;;;;;;5067345;28;20052;-64
2022/12/09 09:40:03;;;;;;;72.28;32.67;;;1.10;99.90;;;;;;5060815;28;20040;-65
2022/12/09 09:42:42;;;;;;;89.10;31.08;;;1.00;99.90;;;;;;5068166;28;20056;-63
2022/12/09 09:45:14;;;;;;;80.03;30.48;;;1.20;99.90;;;;;;5059586;28;20420;-63
2022/12/09 09:47:45;;;;;;;83.45;32.97;;;1.10;99.90;;;;;;5044025;28;20316;-64
2022/12/09 09:50:32;;;;;;;189.88;37.25;;;1.20;99.90;;;;;;5072682;28;20497;-63
2022/12/09 09:53:00;;;;;;;190.38;37.15;;;1.10;99.90;;;;;;5035191;28;20037;-63
2022/12/09 09:55:31;;;;;;;225.35;35.45;;;1.00;99.90;;;;;;5056843;28;20044;-64
2022/12/09 09:58:03;;;;;;;92.45;30.73;;;1.10;99.90;;;;;;5044017;28;20083;-64
2022/12/09 10:00:55;;;;;;;401.77;43.67;;;1.00;99.90;;;;;;5047943;28;20127;-63
2022/12/09 10:03:30;;;;;;;152.60;32.78;;;1.00;99.90;;;;;;5044150;28;20056;-63
2022/12/09 10:06:00;;;;;;;189.85;35.10;;;0.90;99.90;;;;;;5059151;28;20107;-63
2022/12/09 10:08:57;;;;;;;523.08;47.67;;;1.00;99.90;;;;;;5052572;28;20052;-67
2022/12/09 10:12:00;;;;;;;380.27;41.50;;;0.90;99.90;;;;;;5057625;28;20108;-67
2022/12/09 10:15:08;;;;;;;413.70;41.75;;;0.80;99.90;;;;;;5032727;28;20434;-69
2022/12/09 10:17:40;;;;;;;187.68;35.80;;;0.80;99.90;;;;;;5047236;28;20159;-68
2022/12/09 10:20:27;;;;;;;237.32;37.53;;;0.80;99.90;;;;;;5077333;28;20639;-68
2022/12/09 10:23:09;;;;;;;385.38;39.70;;;0.90;99.90;;;;;;5050765;28;20044;-67
2022/12/09 10:25:40;;;;;;;170.95;34.28;;;0.90;99.90;;;;;;5044132;28;20187;-68
2022/12/09 10:28:26;;;;;;;423.80;48.33;;;1.00;99.90;;;;;;5018077;28;20085;-68
2022/12/09 10:30:54;;;;;;;184.40;36.00;;;0.80;99.90;;;;;;5028220;28;20057;-68
2022/12/09 10:33:29;;;;;;;238.73;36.67;;;1.00;99.90;;;;;;5032383;28;20567;-69
2022/12/09 10:35:55;;;;;;;254.95;38.67;;;1.00;99.90;;;;;;5036403;28;20548;-67
2022/12/09 10:38:21;;;;;;;144.10;33.88;;;1.10;99.90;;;;;;5018368;28;20049;-67
2022/12/09 10:40:53;;;;;;;98.15;32.40;;;1.20;99.90;;;;;;5033784;28;20119;-67
2022/12/09 10:43:37;;;;;;;105.97;31.88;;;1.20;99.90;;;;;;5010532;28;20758;-67
2022/12/09 10:46:08;;;;;;;93.43;30.27;;;1.30;99.90;;;;;;5036386;28;20145;-68
2022/12/09 10:48:37;;;;;;;145.52;31.80;;;1.30;99.90;;;;;;5001242;28;20113;-68
2022/12/09 10:51:15;;;;;;;217.88;36.92;;;1.30;99.90;;;;;;5033261;28;20075;-67
2022/12/09 10:53:51;;;;;;;94.22;28.83;;;1.30;99.90;;;;;;5011012;28;20112;-68
2022/12/09 10:56:30;;;;;;;103.10;30.20;;;1.30;99.90;;;;;;5040489;28;20084;-68
2022/12/09 10:59:10;;;;;;;104.50;31.17;;;1.30;99.90;;;;;;5033827;28;20048;-67
2022/12/09 11:01:53;;;;;;;96.17;29.30;;;1.40;99.90;;;;;;5059735;28;20060;-66
2022/12/09 11:04:25;;;;;;;105.57;29.65;;;1.40;99.90;;;;;;5015875;28;20052;-66
2022/12/09 11:06:55;;;;;;;146.25;30.50;;;1.30;99.90;;;;;;5049771;28;20041;-67
2022/12/09 11:09:28;;;;;;;84.97;29.45;;;1.10;99.90;;;;;;5041131;28;20045;-65
2022/12/09 11:11:54;;;;;;;93.20;29.85;;;1.10;99.90;;;;;;5049865;28;20052;-65
2022/12/09 11:14:35;;;;;;;77.28;29.27;;;1.00;99.90;;;;;;5059656;28;20049;-64
2022/12/09 11:17:15;;;;;;;79.97;30.17;;;1.10;99.90;;;;;;5020833;28;20063;-65
2022/12/09 11:19:42;;;;;;;84.13;29.67;;;1.20;99.90;;;;;;5061118;28;20190;-64
2022/12/09 11:22:22;;;;;;;80.30;32.00;;;1.20;99.90;;;;;;5028598;28;20168;-65
2022/12/09 11:24:51;;;;;;;111.95;32.78;;;1.20;99.90;;;;;;5048179;28;20041;-66
2022/12/09 11:27:38;;;;;;;85.82;33.15;;;1.10;99.90;;;;;;5046378;28;20353;-65
2022/12/09 11:30:18;;;;;;;74.63;31.92;;;1.10;99.90;;;;;;5051549;28;20045;-65
2022/12/09 11:33:01;;;;;;;72.53;29.88;;;1.00;99.90;;;;;;5049372;28;20048;-65
2022/12/09 11:35:43;;;;;;;75.40;30.45;;;1.10;99.90;;;;;;5062996;28;20040;-65
2022/12/09 11:38:40;;;;;;;74.05;30.70;;;1.10;99.90;;;;;;5043326;28;20060;-66
2022/12/09 11:44:16;;;;;;;96.35;31.98;;;1.20;99.90;;;;;;5049390;28;20130;-67
2022/12/09 11:46:42;;;;;;;71.03;33.22;;;1.20;99.90;;;;;;5055580;28;20068;-67
2022/12/09 11:49:16;;;;;;;97.10;32.20;;;1.20;99.90;;;;;;5068048;28;20044;-67
2022/12/09 11:52:05;;;;;;;93.18;34.33;;;1.20;99.90;;;;;;5060185;28;20046;-67
2022/12/09 11:54:43;;;;;;;72.63;31.88;;;1.10;99.90;;;;;;5024562;28;20517;-67
2022/12/09 11:57:39;;;;;;;71.32;33.22;;;1.20;99.90;;;;;;5046993;28;20062;-67
2022/12/09 12:00:17;;;;;;;70.05;30.83;;;1.20;99.90;;;;;;5063786;28;20052;-64
2022/12/09 12:03:09;;;;;;;71.22;31.65;;;1.40;99.90;;;;;;5032721;28;20083;-66
2022/12/09 12:05:41;;;;;;;69.00;30.77;;;1.30;99.90;;;;;;5079500;28;20041;-67
2022/12/09 12:08:30;;;;;;;68.65;31.42;;;1.50;99.90;;;;;;5050342;28;20079;-66
2022/12/09 12:11:13;;;;;;;64.85;30.27;;;1.50;99.90;;;;;;5069496;28;20055;-68
2022/12/09 12:13:46;;;;;;;65.45;30.00;;;1.40;99.90;;;;;;5037671;28;20044;-67
2022/12/09 12:16:14;;;;;;;65.53;30.88;;;1.50;99.90;;;;;;5045846;28;20095;-67
2022/12/09 12:19:00;;;;;;;70.47;32.80;;;1.50;99.90;;;;;;5044990;28;20496;-67
2022/12/09 12:21:47;;;;;;;63.70;28.85;;;1.50;99.90;;;;;;5079459;28;20055;-67
2022/12/09 12:24:16;;;;;;;65.95;30.05;;;1.50;99.90;;;;;;5034739;28;20400;-67
2022/12/09 12:26:47;;;;;;;61.17;29.50;;;1.50;99.90;;;;;;5061488;28;20053;-67
2022/12/09 12:29:32;;;;;;;62.88;29.08;;;1.60;99.90;;;;;;5032118;28;20087;-67
2022/12/09 12:32:23;;;;;;;60.70;30.15;;;1.60;99.90;;;;;;5055771;28;20044;-68
2022/12/09 12:34:58;;;;;;;56.28;28.05;;;1.60;99.90;;;;;;5048112;28;20076;-66
2022/12/09 12:37:26;;;;;;;58.72;28.83;;;1.50;99.90;;;;;;5065312;28;20045;-66
2022/12/09 12:40:03;;;;;;;61.03;29.05;;;1.40;99.90;;;;;;5074831;28;20041;-66
2022/12/09 12:46:15;;;;;;;60.63;29.50;;;1.40;99.90;;;;;;5066197;28;20657;-66
2022/12/09 12:48:28;;;;;;;64.50;30.30;;;1.50;99.90;;;;;;5062231;28;19948;-66
2022/12/09 12:51:13;;;;;;;60.55;29.50;;;1.50;99.90;;;;;;5075545;28;20047;-66
2022/12/09 12:53:38;;;;;;;59.78;29.73;;;1.60;99.90;;;;;;5047970;28;20069;-66
2022/12/09 12:56:07;;;;;;;61.38;29.55;;;1.60;99.90;;;;;;5075050;28;20045;-67
2022/12/09 12:58:38;;;;;;;63.40;30.23;;;1.60;99.90;;;;;;5061949;28;20543;-67